Terminal Aerodrome Forecast
Issued by NWS

Home | Current Version | Previous Version | Text Only | Print | Product List | Glossary On
Versions: 1 2 3 4 5 6 7 8 9 10 11 12 13 14 15
000
FTUS43 KJKL 260500
TAFSME
TAF
KSME 260526Z 2606/2706 10004KT P6SM FEW045 FEW120=

USA.gov is the U.S. government's official web portal to all federal, state and local government web resources and services.